Time,TemperatureF,DewpointF,PressureIn,WindDirection,WindDirectionDegrees,WindSpeedMPH,WindSpeedGustMPH,Humidity,HourlyPrecipIn,Conditions,Clouds,dailyrainin,SolarRadiationWatts/m^2,SoftwareType,DateUTC
2013-04-12 00:00:00,39.8,38.8,29.56,ENE,72,6.0,6.0,96,0.00,,,0.91,0,Wunderground v.1.15,2013-04-12 04:00:00,
2013-04-12 00:01:00,39.8,38.8,29.56,ENE,72,6.0,10.0,96,0.00,,,0.91,0,Wunderground v.1.15,2013-04-12 04:01:00,
2013-04-12 00:02:00,39.9,38.9,29.56,ENE,63,6.0,10.0,96,0.00,,,0.91,0,Wunderground v.1.15,2013-04-12 04:02:00,
2013-04-12 00:08:00,39.9,38.9,29.56,ENE,69,6.0,10.0,96,0.04,,,0.92,0,Wunderground v.1.15,2013-04-12 04:08:00,
2013-04-12 00:13:00,39.8,38.8,29.55,ENE,65,6.0,10.0,96,0.04,,,0.92,0,Wunderground v.1.15,2013-04-12 04:13:00,
2013-04-12 00:18:00,39.7,38.7,29.56,ENE,76,7.0,10.0,96,0.04,,,0.92,0,Wunderground v.1.15,2013-04-12 04:18:00,
2013-04-12 00:23:00,39.8,39.0,29.55,ENE,64,6.0,-999.0,96,-99.99,,,0.92,,weatherlink.com 1.10,2013-04-12 04:23:00,
2013-04-12 00:29:00,39.8,38.8,29.55,ENE,71,5.0,10.0,96,0.00,,,0.92,0,Wunderground v.1.15,2013-04-12 04:29:00,
2013-04-12 00:34:00,39.9,38.9,29.55,East,92,5.0,10.0,96,0.00,,,0.92,0,Wunderground v.1.15,2013-04-12 04:34:00,
2013-04-12 00:39:00,39.9,38.9,29.55,ENE,72,5.0,10.0,96,0.00,,,0.00,0,Wunderground v.1.15,2013-04-12 04:39:00,
2013-04-12 00:44:00,39.9,38.9,29.54,ENE,61,5.0,10.0,96,0.00,,,0.01,0,Wunderground v.1.15,2013-04-12 04:44:00,
2013-04-12 00:49:00,39.9,38.9,29.55,ENE,62,4.0,10.0,96,0.00,,,0.01,0,Wunderground v.1.15,2013-04-12 04:49:00,
2013-04-12 00:55:00,39.8,38.8,29.55,ENE,62,2.0,10.0,96,0.00,,,0.01,0,Wunderground v.1.15,2013-04-12 04:55:00,
2013-04-12 01:00:00,39.8,38.8,29.55,ENE,62,1.0,1.0,96,0.05,,,0.02,0,Wunderground v.1.15,2013-04-12 05:00:00,
2013-04-12 01:06:00,39.7,38.7,29.55,ENE,62,1.0,11.0,96,0.05,,,0.02,0,Wunderground v.1.15,2013-04-12 05:06:00,
2013-04-12 01:11:00,39.7,38.7,29.55,East,84,2.0,11.0,96,0.06,,,0.03,0,Wunderground v.1.15,2013-04-12 05:11:00,
2013-04-12 01:16:00,39.8,38.8,29.55,ENE,76,3.0,11.0,96,0.08,,,0.04,0,Wunderground v.1.15,2013-04-12 05:16:00,
2013-04-12 01:22:00,39.8,38.8,29.55,ENE,77,2.0,11.0,96,0.07,,,0.04,0,Wunderground v.1.15,2013-04-12 05:22:00,
2013-04-12 01:28:00,39.8,38.8,29.55,ENE,77,0.0,11.0,96,0.06,,,0.05,0,Wunderground v.1.15,2013-04-12 05:28:00,
2013-04-12 01:34:00,39.8,38.8,29.55,ENE,75,0.0,11.0,96,0.06,,,0.05,0,Wunderground v.1.15,2013-04-12 05:34:00,
2013-04-12 01:39:00,39.8,39.0,29.55,ENE,75,0.0,-999.0,96,-99.99,,,0.05,,weatherlink.com 1.10,2013-04-12 05:39:00,
2013-04-12 01:45:00,39.8,38.8,29.56,ENE,75,0.0,11.0,96,0.00,,,0.06,0,Wunderground v.1.15,2013-04-12 05:45:00,
2013-04-12 01:51:00,39.7,38.7,29.56,ENE,75,0.0,11.0,96,0.00,,,0.06,0,Wunderground v.1.15,2013-04-12 05:51:00,
2013-04-12 01:57:00,39.7,38.7,29.56,ENE,75,0.0,11.0,96,0.00,,,0.06,0,Wunderground v.1.15,2013-04-12 05:57:00,
2013-04-12 02:02:00,39.7,38.7,29.56,WNW,291,0.0,6.0,96,0.04,,,0.07,0,Wunderground v.1.15,2013-04-12 06:02:00,
2013-04-12 02:08:00,39.7,39.0,29.56,WNW,291,0.0,-999.0,96,-99.99,,,0.07,,weatherlink.com 1.10,2013-04-12 06:08:00,
2013-04-12 02:13:00,39.7,38.7,29.55,WNW,291,0.0,6.0,96,0.04,,,0.07,0,Wunderground v.1.15,2013-04-12 06:13:00,
2013-04-12 02:18:00,39.7,38.7,29.56,WNW,290,0.0,6.0,96,0.00,,,0.07,0,Wunderground v.1.15,2013-04-12 06:18:00,
2013-04-12 02:23:00,39.7,39.0,29.56,WNW,294,0.0,-999.0,96,-99.99,,,0.07,,weatherlink.com 1.10,2013-04-12 06:23:00,
2013-04-12 02:29:00,39.7,38.7,29.56,WNW,294,0.0,6.0,96,0.00,,,0.08,0,Wunderground v.1.15,2013-04-12 06:29:00,
2013-04-12 02:34:00,39.7,38.7,29.56,WNW,294,0.0,6.0,96,0.00,,,0.08,0,Wunderground v.1.15,2013-04-12 06:34:00,
2013-04-12 02:40:00,39.8,38.8,29.56,WNW,296,0.0,6.0,96,0.06,,,0.09,0,Wunderground v.1.15,2013-04-12 06:40:00,
2013-04-12 02:46:00,39.7,38.7,29.56,WNW,296,1.0,6.0,96,0.06,,,0.09,0,Wunderground v.1.15,2013-04-12 06:46:00,
2013-04-12 02:52:00,39.8,38.8,29.56,WNW,296,0.0,6.0,96,0.04,,,0.09,0,Wunderground v.1.15,2013-04-12 06:52:00,
2013-04-12 02:57:00,39.8,38.8,29.56,WNW,292,0.0,6.0,96,0.00,,,0.10,0,Wunderground v.1.15,2013-04-12 06:57:00,
2013-04-12 03:02:00,39.8,38.8,29.56,West,281,1.0,4.0,96,0.00,,,0.10,0,Wunderground v.1.15,2013-04-12 07:02:00,
2013-04-12 03:08:00,39.8,39.0,29.56,West,281,0.0,-999.0,96,-99.99,,,0.10,,weatherlink.com 1.10,2013-04-12 07:08:00,
2013-04-12 03:13:00,39.9,38.9,29.56,West,280,0.0,3.0,96,0.00,,,0.10,0,Wunderground v.1.15,2013-04-12 07:13:00,
2013-04-12 03:18:00,39.9,38.9,29.56,West,281,1.0,4.0,96,0.00,,,0.10,0,Wunderground v.1.15,2013-04-12 07:18:00,
2013-04-12 03:23:00,39.9,38.9,29.56,West,281,2.0,3.0,96,0.00,,,0.11,0,Wunderground v.1.15,2013-04-12 07:23:00,
2013-04-12 03:28:00,39.9,38.9,29.55,NW,315,2.0,3.0,96,0.00,,,0.11,0,Wunderground v.1.15,2013-04-12 07:28:00,
2013-04-12 03:33:00,39.8,38.8,29.55,WNW,299,2.0,5.0,96,0.07,,,0.12,0,Wunderground v.1.15,2013-04-12 07:33:00,
2013-04-12 03:39:00,39.8,38.8,29.55,WNW,291,3.0,5.0,96,0.07,,,0.12,0,Wunderground v.1.15,2013-04-12 07:39:00,
2013-04-12 03:45:00,39.8,38.8,29.55,WNW,292,2.0,3.0,96,0.05,,,0.12,0,Wunderground v.1.15,2013-04-12 07:45:00,
2013-04-12 03:51:00,39.9,38.9,29.55,WNW,294,1.0,3.0,96,0.00,,,0.12,0,Wunderground v.1.15,2013-04-12 07:51:00,
2013-04-12 03:56:00,39.9,38.9,29.55,WNW,300,2.0,7.0,96,0.00,,,0.12,0,Wunderground v.1.15,2013-04-12 07:56:00,
2013-04-12 04:02:00,40.0,39.0,29.55,NW,304,3.0,6.0,96,0.00,,,0.12,0,Wunderground v.1.15,2013-04-12 08:02:00,
2013-04-12 04:07:00,40.0,39.0,29.55,NW,306,2.0,6.0,96,0.00,,,0.12,0,Wunderground v.1.15,2013-04-12 08:07:00,
2013-04-12 04:13:00,40.0,39.0,29.55,WNW,303,1.0,6.0,96,0.00,,,0.12,0,Wunderground v.1.15,2013-04-12 08:13:00,
2013-04-12 04:19:00,40.0,39.2,29.55,WNW,287,1.0,6.0,97,0.00,,,0.12,0,Wunderground v.1.15,2013-04-12 08:19:00,
2013-04-12 04:25:00,40.0,39.2,29.55,West,278,2.0,6.0,97,0.00,,,0.12,0,Wunderground v.1.15,2013-04-12 08:25:00,
2013-04-12 04:31:00,40.0,39.2,29.55,NW,312,2.0,6.0,97,0.00,,,0.12,0,Wunderground v.1.15,2013-04-12 08:31:00,
2013-04-12 04:36:00,40.0,39.2,29.55,NW,315,2.0,6.0,97,0.00,,,0.12,0,Wunderground v.1.15,2013-04-12 08:36:00,
2013-04-12 04:42:00,40.1,39.3,29.54,NW,311,2.0,6.0,97,0.00,,,0.12,0,Wunderground v.1.15,2013-04-12 08:42:00,
2013-04-12 04:48:00,40.1,39.3,29.55,NW,305,1.0,6.0,97,0.00,,,0.12,0,Wunderground v.1.15,2013-04-12 08:48:00,
2013-04-12 04:53:00,40.2,39.0,29.55,WNW,297,3.0,-999.0,97,-99.99,,,0.12,,weatherlink.com 1.10,2013-04-12 08:53:00,
2013-04-12 04:58:00,40.2,39.4,29.55,West,280,2.0,6.0,97,0.00,,,0.12,0,Wunderground v.1.15,2013-04-12 08:58:00,
2013-04-12 05:04:00,40.3,39.5,29.55,WNW,292,1.0,7.0,97,0.00,,,0.12,0,Wunderground v.1.15,2013-04-12 09:04:00,
2013-04-12 05:10:00,40.4,39.6,29.55,WNW,282,1.0,7.0,97,0.00,,,0.12,0,Wunderground v.1.15,2013-04-12 09:10:00,
2013-04-12 05:15:00,40.4,39.6,29.55,WNW,290,3.0,7.0,97,0.00,,,0.12,0,Wunderground v.1.15,2013-04-12 09:15:00,
2013-04-12 05:21:00,40.6,39.8,29.55,West,272,4.0,7.0,97,0.00,,,0.12,0,Wunderground v.1.15,2013-04-12 09:21:00,
2013-04-12 05:26:00,40.8,40.0,29.56,West,280,4.0,7.0,97,0.00,,,0.12,0,Wunderground v.1.15,2013-04-12 09:26:00,
2013-04-12 05:32:00,41.0,40.2,29.56,SSW,205,5.0,9.0,97,0.00,,,0.12,0,Wunderground v.1.15,2013-04-12 09:32:00,
2013-04-12 05:37:00,40.8,39.7,29.56,West,276,9.0,15.0,96,0.00,,,0.12,0,Wunderground v.1.15,2013-04-12 09:37:00,
2013-04-12 05:42:00,40.6,39.5,29.57,SW,227,10.0,11.0,96,0.00,,,0.12,0,Wunderground v.1.15,2013-04-12 09:42:00,
2013-04-12 05:48:00,40.4,39.1,29.56,WSW,254,8.0,14.0,95,0.00,,,0.12,0,Wunderground v.1.15,2013-04-12 09:48:00,
2013-04-12 05:53:00,40.3,39.3,29.57,West,269,9.0,13.0,96,0.00,,,0.12,0,Wunderground v.1.15,2013-04-12 09:53:00,
2013-04-12 05:59:00,40.1,38.8,29.57,WSW,238,10.0,13.0,95,0.00,,,0.12,0,Wunderground v.1.15,2013-04-12 09:59:00,
2013-04-12 06:04:00,40.2,38.6,29.57,WSW,253,10.0,19.0,94,0.00,,,0.12,0,Wunderground v.1.15,2013-04-12 10:04:00,
2013-04-12 06:10:00,40.1,38.0,29.57,West,265,9.0,19.0,92,0.00,,,0.12,0,Wunderground v.1.15,2013-04-12 10:10:00,
2013-04-12 06:15:00,39.9,37.8,29.57,WSW,249,10.0,19.0,92,0.00,,,0.12,0,Wunderground v.1.15,2013-04-12 10:15:00,
2013-04-12 06:21:00,39.7,37.8,29.58,West,271,10.0,19.0,93,0.00,,,0.12,0,Wunderground v.1.15,2013-04-12 10:21:00,
2013-04-12 06:27:00,39.6,37.7,29.58,WSW,240,8.0,19.0,93,0.00,,,0.12,0,Wunderground v.1.15,2013-04-12 10:27:00,
2013-04-12 06:32:00,39.6,37.7,29.57,West,275,7.0,19.0,93,0.00,,,0.12,0,Wunderground v.1.15,2013-04-12 10:32:00,
2013-04-12 06:37:00,39.5,37.6,29.57,WSW,254,5.0,19.0,93,0.00,,,0.12,0,Wunderground v.1.15,2013-04-12 10:37:00,
2013-04-12 06:43:00,39.5,37.4,29.57,WNW,289,6.0,19.0,92,0.00,,,0.12,0,Wunderground v.1.15,2013-04-12 10:43:00,
2013-04-12 06:49:00,39.5,37.4,29.58,WSW,252,6.0,19.0,92,0.00,,,0.12,0,Wunderground v.1.15,2013-04-12 10:49:00,
2013-04-12 06:54:00,39.5,37.0,29.58,WSW,252,4.0,-999.0,92,-99.99,,,0.12,,weatherlink.com 1.10,2013-04-12 10:54:00,
2013-04-12 06:59:00,39.5,37.4,29.58,WSW,241,7.0,19.0,92,0.00,,,0.12,0,Wunderground v.1.15,2013-04-12 10:59:00,
2013-04-12 07:05:00,39.5,37.1,29.59,WSW,248,7.0,19.0,91,0.00,,,0.12,0,Wunderground v.1.15,2013-04-12 11:05:00,
2013-04-12 07:11:00,39.5,37.1,29.59,SW,223,7.0,19.0,91,0.00,,,0.12,0,Wunderground v.1.15,2013-04-12 11:11:00,
2013-04-12 07:17:00,39.6,37.2,29.59,West,266,6.0,19.0,91,0.00,,,0.12,5,Wunderground v.1.15,2013-04-12 11:17:00,
2013-04-12 07:23:00,39.6,37.0,29.59,SW,220,6.0,-999.0,90,-99.99,,,0.12,,weatherlink.com 1.10,2013-04-12 11:23:00,
2013-04-12 07:28:00,39.6,36.9,29.59,WSW,253,6.0,19.0,90,0.00,,,0.12,7,Wunderground v.1.15,2013-04-12 11:28:00,
2013-04-12 07:34:00,39.5,36.5,29.59,West,260,6.0,19.0,89,0.00,,,0.12,7,Wunderground v.1.15,2013-04-12 11:34:00,
2013-04-12 07:40:00,39.6,36.6,29.60,WSW,256,7.0,19.0,89,0.00,,,0.12,14,Wunderground v.1.15,2013-04-12 11:40:00,
2013-04-12 07:46:00,39.5,36.5,29.60,SW,229,8.0,19.0,89,0.00,,,0.12,19,Wunderground v.1.15,2013-04-12 11:46:00,
2013-04-12 07:52:00,39.4,36.4,29.60,SSW,203,6.0,19.0,89,0.00,,,0.12,32,Wunderground v.1.15,2013-04-12 11:52:00,
2013-04-12 07:58:00,39.5,36.5,29.61,West,268,6.0,19.0,89,0.00,,,0.12,56,Wunderground v.1.15,2013-04-12 11:58:00,
2013-04-12 08:03:00,39.5,36.5,29.61,WSW,248,6.0,16.0,89,0.00,,,0.12,56,Wunderground v.1.15,2013-04-12 12:03:00,
2013-04-12 08:08:00,39.6,36.0,29.61,WSW,245,7.0,16.0,87,0.00,,,0.12,32,Wunderground v.1.15,2013-04-12 12:08:00,
2013-04-12 08:14:00,39.6,36.0,29.61,WSW,250,7.0,16.0,87,0.00,,,0.12,21,Wunderground v.1.15,2013-04-12 12:14:00,
2013-04-12 08:19:00,39.6,36.0,29.61,SSW,212,6.0,16.0,87,0.00,,,0.12,19,Wunderground v.1.15,2013-04-12 12:19:00,
2013-04-12 08:25:00,39.5,35.7,29.62,West,259,8.0,16.0,86,0.00,,,0.12,19,Wunderground v.1.15,2013-04-12 12:25:00,
2013-04-12 08:31:00,39.5,36.0,29.62,West,266,7.0,16.0,87,0.00,,,0.12,21,Wunderground v.1.15,2013-04-12 12:31:00,
2013-04-12 08:37:00,39.4,36.1,29.62,SW,217,6.0,16.0,88,0.00,,,0.12,25,Wunderground v.1.15,2013-04-12 12:37:00,
2013-04-12 08:42:00,39.3,35.8,29.62,West,261,8.0,16.0,87,0.00,,,0.12,25,Wunderground v.1.15,2013-04-12 12:42:00,
2013-04-12 08:48:00,39.3,35.8,29.62,WSW,257,10.0,16.0,87,0.00,,,0.12,35,Wunderground v.1.15,2013-04-12 12:48:00,
2013-04-12 08:53:00,39.3,35.5,29.63,SW,219,10.0,16.0,86,0.00,,,0.12,44,Wunderground v.1.15,2013-04-12 12:53:00,
2013-04-12 08:58:00,39.3,34.6,29.62,WSW,240,10.0,21.0,83,0.00,,,0.12,54,Wunderground v.1.15,2013-04-12 12:58:00,
2013-04-12 09:04:00,39.3,34.6,29.63,SW,223,10.0,17.0,83,0.00,,,0.12,51,Wunderground v.1.15,2013-04-12 13:04:00,
2013-04-12 09:10:00,39.1,34.7,29.63,SW,222,10.0,17.0,84,0.00,,,0.12,51,Wunderground v.1.15,2013-04-12 13:10:00,
2013-04-12 09:15:00,39.0,34.0,29.63,SSW,211,12.0,21.0,82,0.00,,,0.12,67,Wunderground v.1.15,2013-04-12 13:15:00,
2013-04-12 09:21:00,39.0,34.3,29.63,SW,230,11.0,17.0,83,0.00,,,0.12,72,Wunderground v.1.15,2013-04-12 13:21:00,
2013-04-12 09:27:00,39.0,34.3,29.63,West,261,10.0,17.0,83,0.00,,,0.12,65,Wunderground v.1.15,2013-04-12 13:27:00,
2013-04-12 09:33:00,39.0,34.0,29.63,SW,221,9.0,17.0,82,0.00,,,0.12,62,Wunderground v.1.15,2013-04-12 13:33:00,
2013-04-12 09:39:00,38.9,34.0,29.63,West,259,13.0,-999.0,81,-99.99,,,0.12,,weatherlink.com 1.10,2013-04-12 13:39:00,
2013-04-12 09:44:00,38.9,32.9,29.63,WSW,248,12.0,17.0,79,0.00,,,0.12,65,Wunderground v.1.15,2013-04-12 13:44:00,
2013-04-12 09:50:00,38.8,33.2,29.64,SSW,213,10.0,17.0,80,0.00,,,0.12,51,Wunderground v.1.15,2013-04-12 13:50:00,
2013-04-12 09:56:00,38.7,32.7,29.64,WSW,252,11.0,17.0,79,0.00,,,0.12,47,Wunderground v.1.15,2013-04-12 13:56:00,
2013-04-12 10:02:00,38.6,33.0,29.64,WSW,255,13.0,22.0,80,0.00,,,0.12,40,Wunderground v.1.15,2013-04-12 14:02:00,
2013-04-12 10:07:00,38.6,33.3,29.64,SW,232,12.0,22.0,81,0.00,,,0.12,40,Wunderground v.1.15,2013-04-12 14:07:00,
2013-04-12 10:12:00,38.6,33.6,29.65,SSW,204,10.0,22.0,82,0.00,,,0.12,40,Wunderground v.1.15,2013-04-12 14:12:00,
2013-04-12 10:18:00,38.5,33.5,29.65,WSW,244,9.0,22.0,82,0.00,,,0.12,47,Wunderground v.1.15,2013-04-12 14:18:00,
2013-04-12 10:23:00,38.5,33.0,29.65,WSW,244,6.0,-999.0,81,-99.99,,,0.12,,weatherlink.com 1.10,2013-04-12 14:23:00,
2013-04-12 10:28:00,38.4,33.4,29.65,SSW,207,10.0,22.0,82,0.00,,,0.12,53,Wunderground v.1.15,2013-04-12 14:28:00,
2013-04-12 10:34:00,38.4,33.1,29.65,WSW,250,10.0,22.0,81,0.00,,,0.12,53,Wunderground v.1.15,2013-04-12 14:34:00,
2013-04-12 10:40:00,38.3,33.0,29.66,WSW,254,11.0,22.0,81,0.00,,,0.12,62,Wunderground v.1.15,2013-04-12 14:40:00,
2013-04-12 10:45:00,38.3,32.7,29.66,West,260,11.0,22.0,80,0.00,,,0.12,83,Wunderground v.1.15,2013-04-12 14:45:00,
2013-04-12 10:51:00,38.3,32.0,29.66,SW,227,12.0,22.0,78,0.00,,,0.12,104,Wunderground v.1.15,2013-04-12 14:51:00,
2013-04-12 10:56:00,38.3,32.0,29.66,SSW,206,13.0,22.0,78,0.00,,,0.12,93,Wunderground v.1.15,2013-04-12 14:56:00,
2013-04-12 11:02:00,38.4,32.1,29.66,West,262,12.0,20.0,78,0.00,,,0.12,113,Wunderground v.1.15,2013-04-12 15:02:00,
2013-04-12 11:07:00,38.5,32.2,29.66,West,273,10.0,20.0,78,0.00,,,0.12,142,Wunderground v.1.15,2013-04-12 15:07:00,
2013-04-12 11:13:00,38.6,32.0,29.67,WSW,254,11.0,20.0,77,0.00,,,0.12,163,Wunderground v.1.15,2013-04-12 15:13:00,
2013-04-12 11:19:00,38.8,32.5,29.67,WSW,256,11.0,20.0,78,0.00,,,0.12,181,Wunderground v.1.15,2013-04-12 15:19:00,
2013-04-12 11:24:00,39.0,32.1,29.67,WSW,256,9.0,20.0,76,0.00,,,0.12,183,Wunderground v.1.15,2013-04-12 15:24:00,
2013-04-12 11:29:00,39.1,31.5,29.67,West,265,9.0,20.0,74,0.00,,,0.12,130,Wunderground v.1.15,2013-04-12 15:29:00,
2013-04-12 11:35:00,39.1,31.2,29.67,WSW,238,8.0,20.0,73,0.00,,,0.12,88,Wunderground v.1.15,2013-04-12 15:35:00,
2013-04-12 11:41:00,39.1,31.2,29.67,SW,222,7.0,20.0,73,0.00,,,0.12,90,Wunderground v.1.15,2013-04-12 15:41:00,
2013-04-12 11:47:00,39.1,31.5,29.67,SW,225,9.0,20.0,74,0.00,,,0.12,139,Wunderground v.1.15,2013-04-12 15:47:00,
2013-04-12 11:53:00,39.2,32.0,29.67,West,267,7.0,-999.0,75,-99.99,,,0.12,,weatherlink.com 1.10,2013-04-12 15:53:00,
2013-04-12 11:58:00,39.2,31.9,29.67,SW,219,8.0,20.0,75,0.00,,,0.12,104,Wunderground v.1.15,2013-04-12 15:58:00,
2013-04-12 12:03:00,39.1,32.2,29.67,WSW,246,9.0,23.0,76,0.00,,,0.12,113,Wunderground v.1.15,2013-04-12 16:03:00,
2013-04-12 12:08:00,39.1,31.8,29.68,SW,225,11.0,23.0,75,0.00,,,0.12,118,Wunderground v.1.15,2013-04-12 16:08:00,
2013-04-12 12:14:00,39.1,31.8,29.68,WSW,242,13.0,23.0,75,0.00,,,0.12,107,Wunderground v.1.15,2013-04-12 16:14:00,
2013-04-12 12:19:00,39.1,31.8,29.68,SW,223,11.0,23.0,75,0.00,,,0.12,102,Wunderground v.1.15,2013-04-12 16:19:00,
2013-04-12 12:24:00,39.1,31.8,29.68,SW,221,10.0,23.0,75,0.00,,,0.12,104,Wunderground v.1.15,2013-04-12 16:24:00,
2013-04-12 12:29:00,39.1,31.8,29.68,WSW,241,11.0,23.0,75,0.00,,,0.12,113,Wunderground v.1.15,2013-04-12 16:29:00,
2013-04-12 12:35:00,39.2,31.9,29.68,SW,232,11.0,23.0,75,0.00,,,0.12,105,Wunderground v.1.15,2013-04-12 16:35:00,
2013-04-12 12:40:00,39.3,31.7,29.68,SSW,209,11.0,23.0,74,0.00,,,0.12,90,Wunderground v.1.15,2013-04-12 16:40:00,
2013-04-12 12:46:00,39.3,31.7,29.68,WSW,244,12.0,23.0,74,0.00,,,0.12,91,Wunderground v.1.15,2013-04-12 16:46:00,
2013-04-12 12:51:00,39.3,31.7,29.68,SW,232,10.0,14.0,74,0.00,,,0.12,86,Wunderground v.1.15,2013-04-12 16:51:00,
2013-04-12 12:57:00,39.4,31.8,29.69,SW,221,10.0,23.0,74,0.00,,,0.12,81,Wunderground v.1.15,2013-04-12 16:57:00,
2013-04-12 13:02:00,39.5,31.9,29.69,WSW,245,11.0,22.0,74,0.00,,,0.12,77,Wunderground v.1.15,2013-04-12 17:02:00,
2013-04-12 13:08:00,39.5,32.0,29.69,SW,226,17.0,-999.0,73,-99.99,,,0.12,,weatherlink.com 1.10,2013-04-12 17:08:00,
2013-04-12 13:14:00,39.6,32.0,29.70,SW,232,10.0,22.0,74,0.00,,,0.12,83,Wunderground v.1.15,2013-04-12 17:14:00,
2013-04-12 13:20:00,39.6,31.7,29.70,SW,215,11.0,11.0,73,0.00,,,0.12,90,Wunderground v.1.15,2013-04-12 17:20:00,
2013-04-12 13:25:00,39.6,32.0,29.70,WSW,249,11.0,22.0,74,0.00,,,0.12,81,Wunderground v.1.15,2013-04-12 17:25:00,
2013-04-12 13:30:00,39.5,32.2,29.70,West,259,12.0,22.0,75,0.00,,,0.12,81,Wunderground v.1.15,2013-04-12 17:30:00,
2013-04-12 13:36:00,39.5,32.6,29.70,West,269,11.0,22.0,76,0.00,,,0.12,113,Wunderground v.1.15,2013-04-12 17:36:00,
2013-04-12 13:41:00,39.5,32.9,29.69,West,275,10.0,14.0,77,0.00,,,0.12,116,Wunderground v.1.15,2013-04-12 17:41:00,
2013-04-12 13:47:00,39.7,32.8,29.69,West,267,9.0,22.0,76,0.00,,,0.12,195,Wunderground v.1.15,2013-04-12 17:47:00,
2013-04-12 13:52:00,39.9,32.6,29.69,SW,223,9.0,22.0,75,0.00,,,0.12,160,Wunderground v.1.15,2013-04-12 17:52:00,
2013-04-12 13:57:00,40.0,32.7,29.69,WSW,249,10.0,22.0,75,0.00,,,0.12,141,Wunderground v.1.15,2013-04-12 17:57:00,
2013-04-12 14:03:00,40.1,32.8,29.70,SW,229,10.0,26.0,75,0.00,,,0.12,130,Wunderground v.1.15,2013-04-12 18:03:00,
2013-04-12 14:08:00,40.2,32.6,29.69,WSW,240,10.0,26.0,74,0.00,,,0.12,114,Wunderground v.1.15,2013-04-12 18:08:00,
2013-04-12 14:13:00,40.2,32.6,29.69,WSW,245,12.0,26.0,74,0.00,,,0.12,98,Wunderground v.1.15,2013-04-12 18:13:00,
2013-04-12 14:20:00,40.2,32.6,29.69,WSW,240,12.0,12.0,74,0.00,,,0.12,93,Wunderground v.1.15,2013-04-12 18:20:00,
2013-04-12 14:25:00,40.1,32.5,29.70,WSW,242,13.0,26.0,74,0.00,,,0.12,81,Wunderground v.1.15,2013-04-12 18:25:00,
2013-04-12 15:26:00,40.9,33.9,29.72,WSW,240,7.0,23.0,76,0.00,,,0.12,100,Wunderground v.1.15,2013-04-12 19:26:00,
2013-04-12 15:27:00,40.9,34.0,29.72,SW,217,5.0,-999.0,75,-99.99,,,0.12,,weatherlink.com 1.10,2013-04-12 19:27:00,
2013-04-12 15:33:00,41.1,33.8,29.72,WSW,248,10.0,23.0,75,0.00,,,0.12,142,Wunderground v.1.15,2013-04-12 19:33:00,
2013-04-12 15:39:00,41.2,33.2,29.72,WSW,257,11.0,23.0,73,0.00,,,0.12,127,Wunderground v.1.15,2013-04-12 19:39:00,
2013-04-12 15:44:00,41.3,33.6,29.73,SW,236,11.0,23.0,74,0.00,,,0.12,91,Wunderground v.1.15,2013-04-12 19:44:00,
2013-04-12 15:50:00,41.4,33.7,29.73,SW,218,11.0,23.0,74,0.00,,,0.12,100,Wunderground v.1.15,2013-04-12 19:50:00,
2013-04-12 15:55:00,41.4,33.7,29.73,SW,226,11.0,23.0,74,0.00,,,0.12,160,Wunderground v.1.15,2013-04-12 19:55:00,
2013-04-12 16:00:00,41.6,33.9,29.73,SW,219,9.0,9.0,74,0.00,,,0.12,330,Wunderground v.1.15,2013-04-12 20:00:00,
2013-04-12 16:06:00,42.2,34.5,29.73,SSW,203,8.0,20.0,74,0.00,,,0.12,329,Wunderground v.1.15,2013-04-12 20:06:00,
2013-04-12 16:12:00,42.4,34.4,29.72,WSW,245,11.0,20.0,73,0.00,,,0.12,179,Wunderground v.1.15,2013-04-12 20:12:00,
2013-04-12 16:17:00,42.2,34.2,29.73,SSW,197,13.0,20.0,73,0.00,,,0.12,81,Wunderground v.1.15,2013-04-12 20:17:00,
2013-04-12 16:22:00,42.1,34.1,29.73,SW,215,13.0,20.0,73,0.00,,,0.12,116,Wunderground v.1.15,2013-04-12 20:22:00,
2013-04-12 16:28:00,42.2,34.2,29.73,WSW,244,12.0,20.0,73,0.00,,,0.12,155,Wunderground v.1.15,2013-04-12 20:28:00,
2013-04-12 16:34:00,42.5,33.8,29.73,West,268,9.0,20.0,71,0.00,,,0.12,229,Wunderground v.1.15,2013-04-12 20:34:00,
2013-04-12 16:40:00,42.7,33.6,29.73,West,265,11.0,20.0,70,0.00,,,0.12,287,Wunderground v.1.15,2013-04-12 20:40:00,
2013-04-12 16:46:00,42.8,34.0,29.73,SW,225,13.0,20.0,71,0.00,,,0.12,236,Wunderground v.1.15,2013-04-12 20:46:00,
2013-04-12 16:51:00,42.9,33.8,29.73,WSW,245,12.0,20.0,70,0.00,,,0.12,158,Wunderground v.1.15,2013-04-12 20:51:00,
2013-04-12 16:56:00,42.7,33.6,29.74,SW,225,13.0,20.0,70,0.00,,,0.12,91,Wunderground v.1.15,2013-04-12 20:56:00,
2013-04-12 17:02:00,42.6,33.5,29.74,SW,236,14.0,23.0,70,0.00,,,0.12,69,Wunderground v.1.15,2013-04-12 21:02:00,
2013-04-12 17:07:00,42.6,33.5,29.74,WSW,240,12.0,23.0,70,0.00,,,0.12,67,Wunderground v.1.15,2013-04-12 21:07:00,
2013-04-12 17:13:00,42.3,33.9,29.74,WSW,240,12.0,23.0,72,0.00,,,0.12,46,Wunderground v.1.15,2013-04-12 21:13:00,
2013-04-12 17:19:00,41.5,34.5,29.75,West,263,15.0,23.0,76,0.00,,,0.12,127,Wunderground v.1.15,2013-04-12 21:19:00,
2013-04-12 17:24:00,41.4,35.1,29.75,WSW,242,13.0,23.0,78,0.00,,,0.12,104,Wunderground v.1.15,2013-04-12 21:24:00,
2013-04-12 17:30:00,41.6,34.6,29.75,SW,222,11.0,23.0,76,0.00,,,0.12,88,Wunderground v.1.15,2013-04-12 21:30:00,
2013-04-12 17:36:00,41.9,33.9,29.75,WSW,240,11.0,30.0,73,0.00,,,0.12,74,Wunderground v.1.15,2013-04-12 21:36:00,
2013-04-12 17:42:00,41.8,34.1,29.75,West,277,12.0,23.0,74,0.00,,,0.12,244,Wunderground v.1.15,2013-04-12 21:42:00,
2013-04-12 17:47:00,41.9,34.2,29.75,SW,236,12.0,23.0,74,0.00,,,0.12,234,Wunderground v.1.15,2013-04-12 21:47:00,
2013-04-12 17:52:00,42.1,34.1,29.75,SW,225,14.0,23.0,73,0.00,,,0.12,199,Wunderground v.1.15,2013-04-12 21:52:00,
2013-04-12 17:58:00,42.3,34.6,29.76,WSW,237,13.0,23.0,74,0.00,,,0.12,176,Wunderground v.1.15,2013-04-12 21:58:00,
2013-04-12 18:04:00,42.1,34.7,29.76,WSW,248,13.0,30.0,75,0.00,,,0.12,153,Wunderground v.1.15,2013-04-12 22:04:00,
2013-04-12 18:10:00,41.8,35.1,29.76,SW,227,15.0,30.0,77,0.00,,,0.12,121,Wunderground v.1.15,2013-04-12 22:10:00,
2013-04-12 18:16:00,41.6,34.9,29.77,West,259,15.0,30.0,77,0.00,,,0.12,81,Wunderground v.1.15,2013-04-12 22:16:00,
2013-04-12 18:21:00,41.6,35.2,29.77,West,260,13.0,30.0,78,0.00,,,0.12,123,Wunderground v.1.15,2013-04-12 22:21:00,
2013-04-12 18:26:00,41.6,35.2,29.77,SW,232,12.0,30.0,78,0.00,,,0.12,67,Wunderground v.1.15,2013-04-12 22:26:00,
2013-04-12 18:32:00,41.5,35.2,29.77,SW,236,13.0,30.0,78,0.00,,,0.12,63,Wunderground v.1.15,2013-04-12 22:32:00,
2013-04-12 18:38:00,41.5,35.0,29.78,SW,227,15.0,-999.0,79,-99.99,,,0.12,,weatherlink.com 1.10,2013-04-12 22:38:00,
2013-04-12 18:43:00,41.6,35.6,29.78,WSW,237,12.0,30.0,79,0.00,,,0.12,56,Wunderground v.1.15,2013-04-12 22:43:00,
2013-04-12 18:48:00,41.7,35.7,29.78,SW,221,12.0,30.0,79,0.00,,,0.12,54,Wunderground v.1.15,2013-04-12 22:48:00,
2013-04-12 18:54:00,41.8,35.4,29.78,SW,217,13.0,30.0,78,0.00,,,0.12,70,Wunderground v.1.15,2013-04-12 22:54:00,
2013-04-12 19:00:00,41.9,35.9,29.78,WSW,254,12.0,17.0,79,0.00,,,0.12,76,Wunderground v.1.15,2013-04-12 23:00:00,
2013-04-12 19:06:00,41.9,35.9,29.77,SW,234,12.0,28.0,79,0.00,,,0.12,51,Wunderground v.1.15,2013-04-12 23:06:00,
2013-04-12 19:12:00,42.0,36.0,29.77,SW,227,12.0,28.0,79,0.00,,,0.12,30,Wunderground v.1.15,2013-04-12 23:12:00,
2013-04-12 19:18:00,41.8,36.1,29.78,WSW,246,11.0,28.0,80,0.00,,,0.12,18,Wunderground v.1.15,2013-04-12 23:18:00,
2013-04-12 19:23:00,41.4,36.0,29.78,WSW,256,22.0,-999.0,81,-99.99,,,0.12,,weatherlink.com 1.10,2013-04-12 23:23:00,
2013-04-12 19:29:00,40.6,36.4,29.78,WSW,246,15.0,28.0,85,0.00,,,0.12,11,Wunderground v.1.15,2013-04-12 23:29:00,
2013-04-12 19:34:00,40.3,36.4,29.78,SW,225,14.0,28.0,86,0.00,,,0.12,7,Wunderground v.1.15,2013-04-12 23:34:00,
2013-04-12 19:40:00,40.2,36.6,29.78,West,261,11.0,28.0,87,0.00,,,0.12,5,Wunderground v.1.15,2013-04-12 23:40:00,
2013-04-12 19:45:00,40.2,36.6,29.79,West,267,11.0,28.0,87,0.00,,,0.12,5,Wunderground v.1.15,2013-04-12 23:45:00,
2013-04-12 19:51:00,40.1,36.8,29.79,WSW,251,10.0,14.0,88,0.00,,,0.12,5,Wunderground v.1.15,2013-04-12 23:51:00,
2013-04-12 19:57:00,40.1,36.8,29.78,WSW,248,8.0,28.0,88,0.00,,,0.12,5,Wunderground v.1.15,2013-04-12 23:57:00,
2013-04-12 20:02:00,40.3,37.0,29.79,SW,229,8.0,16.0,88,0.00,,,0.12,0,Wunderground v.1.15,2013-04-13 00:02:00,
2013-04-12 20:08:00,40.4,37.0,29.79,SW,219,6.0,-999.0,87,-99.99,,,0.12,,weatherlink.com 1.10,2013-04-13 00:08:00,
2013-04-12 20:14:00,40.5,36.9,29.79,West,268,9.0,30.0,87,0.00,,,0.12,0,Wunderground v.1.15,2013-04-13 00:14:00,
2013-04-12 20:20:00,40.7,37.1,29.79,SSW,211,10.0,30.0,87,0.00,,,0.12,0,Wunderground v.1.15,2013-04-13 00:20:00,
2013-04-12 20:26:00,40.7,37.1,29.79,SW,232,10.0,30.0,87,0.00,,,0.12,0,Wunderground v.1.15,2013-04-13 00:26:00,
2013-04-12 20:31:00,40.7,37.1,29.79,SSW,200,10.0,30.0,87,0.00,,,0.12,0,Wunderground v.1.15,2013-04-13 00:31:00,
2013-04-12 20:36:00,40.7,37.1,29.79,SW,214,9.0,30.0,87,0.00,,,0.12,0,Wunderground v.1.15,2013-04-13 00:36:00,
2013-04-12 20:41:00,40.7,37.1,29.80,WSW,240,9.0,30.0,87,0.00,,,0.12,0,Wunderground v.1.15,2013-04-13 00:41:00,
2013-04-12 20:47:00,40.7,37.1,29.80,WSW,244,8.0,30.0,87,0.00,,,0.12,0,Wunderground v.1.15,2013-04-13 00:47:00,
2013-04-12 20:53:00,40.7,37.0,29.80,SW,232,6.0,-999.0,87,-99.99,,,0.12,,weatherlink.com 1.10,2013-04-13 00:53:00,
2013-04-12 20:59:00,40.7,37.4,29.80,SW,227,8.0,30.0,88,0.00,,,0.12,0,Wunderground v.1.15,2013-04-13 00:59:00,
2013-04-12 21:05:00,40.6,37.3,29.80,WSW,238,9.0,20.0,88,0.00,,,0.12,0,Wunderground v.1.15,2013-04-13 01:05:00,
2013-04-12 21:10:00,40.6,37.3,29.80,WSW,241,9.0,20.0,88,0.00,,,0.12,0,Wunderground v.1.15,2013-04-13 01:10:00,
2013-04-12 21:17:00,40.5,37.2,29.80,WSW,238,10.0,20.0,88,0.00,,,0.12,0,Wunderground v.1.15,2013-04-13 01:17:00,
2013-04-12 21:22:00,40.5,37.5,29.81,SW,224,10.0,20.0,89,0.00,,,0.12,0,Wunderground v.1.15,2013-04-13 01:22:00,
2013-04-12 21:28:00,40.4,37.4,29.81,SW,222,9.0,20.0,89,0.00,,,0.12,0,Wunderground v.1.15,2013-04-13 01:28:00,
2013-04-12 21:33:00,40.4,37.1,29.81,West,277,8.0,20.0,88,0.00,,,0.12,0,Wunderground v.1.15,2013-04-13 01:33:00,
2013-04-12 21:39:00,40.5,37.2,29.81,WSW,238,7.0,20.0,88,0.00,,,0.12,0,Wunderground v.1.15,2013-04-13 01:39:00,
2013-04-12 21:45:00,40.7,37.1,29.81,SW,221,9.0,20.0,87,0.00,,,0.12,0,Wunderground v.1.15,2013-04-13 01:45:00,
2013-04-12 21:50:00,40.8,36.9,29.82,South,183,8.0,20.0,86,0.00,,,0.12,0,Wunderground v.1.15,2013-04-13 01:50:00,
2013-04-12 21:56:00,41.0,36.8,29.82,SW,214,9.0,20.0,85,0.00,,,0.12,0,Wunderground v.1.15,2013-04-13 01:56:00,
2013-04-12 22:01:00,41.1,36.6,29.82,WSW,242,11.0,21.0,84,0.00,,,0.12,0,Wunderground v.1.15,2013-04-13 02:01:00,
2013-04-12 22:07:00,41.1,36.9,29.83,WSW,257,10.0,21.0,85,0.00,,,0.12,0,Wunderground v.1.15,2013-04-13 02:07:00,
2013-04-12 22:13:00,40.9,36.7,29.83,West,276,8.0,21.0,85,0.00,,,0.12,0,Wunderground v.1.15,2013-04-13 02:13:00,
2013-04-12 22:19:00,40.2,36.3,29.83,West,279,10.0,21.0,86,0.00,,,0.13,0,Wunderground v.1.15,2013-04-13 02:19:00,
2013-04-12 22:24:00,40.0,36.4,29.83,WSW,245,8.0,21.0,87,0.00,,,0.13,0,Wunderground v.1.15,2013-04-13 02:24:00,
2013-04-12 22:30:00,39.9,36.6,29.83,West,275,5.0,21.0,88,0.00,,,0.13,0,Wunderground v.1.15,2013-04-13 02:30:00,
2013-04-12 22:35:00,40.0,36.7,29.83,West,264,4.0,21.0,88,0.00,,,0.13,0,Wunderground v.1.15,2013-04-13 02:35:00,
2013-04-12 22:41:00,40.2,36.3,29.83,WSW,249,6.0,21.0,86,0.00,,,0.13,0,Wunderground v.1.15,2013-04-13 02:41:00,
2013-04-12 22:47:00,40.3,36.4,29.83,SW,232,7.0,21.0,86,0.00,,,0.13,0,Wunderground v.1.15,2013-04-13 02:47:00,
2013-04-12 22:52:00,40.0,35.9,29.83,West,264,8.0,21.0,85,0.00,,,0.13,0,Wunderground v.1.15,2013-04-13 02:52:00,
2013-04-12 22:58:00,39.7,36.1,29.84,WSW,251,10.0,21.0,87,0.00,,,0.13,0,Wunderground v.1.15,2013-04-13 02:58:00,
2013-04-12 23:04:00,39.4,35.9,29.84,West,269,8.0,19.0,87,0.00,,,0.13,0,Wunderground v.1.15,2013-04-13 03:04:00,
2013-04-12 23:09:00,39.2,35.7,29.84,WSW,245,9.0,19.0,87,0.00,,,0.13,0,Wunderground v.1.15,2013-04-13 03:09:00,
2013-04-12 23:14:00,39.1,35.6,29.84,WSW,247,8.0,19.0,87,0.00,,,0.13,0,Wunderground v.1.15,2013-04-13 03:14:00,
2013-04-12 23:20:00,39.2,35.7,29.84,SW,223,8.0,8.0,87,0.00,,,0.13,0,Wunderground v.1.15,2013-04-13 03:20:00,
2013-04-12 23:26:00,39.2,35.7,29.84,WSW,241,9.0,19.0,87,0.00,,,0.13,0,Wunderground v.1.15,2013-04-13 03:26:00,
2013-04-12 23:32:00,39.1,35.6,29.84,West,273,8.0,19.0,87,0.00,,,0.13,0,Wunderground v.1.15,2013-04-13 03:32:00,
2013-04-12 23:38:00,39.1,35.0,29.84,SSW,211,6.0,-999.0,86,-99.99,,,0.13,,weatherlink.com 1.10,2013-04-13 03:38:00,
2013-04-12 23:44:00,39.1,35.3,29.84,WSW,257,9.0,19.0,86,0.00,,,0.13,0,Wunderground v.1.15,2013-04-13 03:44:00,
2013-04-12 23:49:00,39.1,35.3,29.84,West,259,8.0,19.0,86,0.00,,,0.13,0,Wunderground v.1.15,2013-04-13 03:49:00,
2013-04-12 23:54:00,39.2,35.4,29.84,SW,226,10.0,19.0,86,0.00,,,0.13,0,Wunderground v.1.15,2013-04-13 03:54:00,